createdAt,value
2019-02-15T00:00:19.181Z,12.5
2019-02-15T00:02:18.828Z,15.9
2019-02-15T00:04:19.473Z,12.4
2019-02-15T00:06:18.790Z,10.8
2019-02-15T00:08:19.454Z,20.4
2019-02-15T00:10:19.555Z,7.9
2019-02-15T00:12:19.249Z,13.4
2019-02-15T00:14:18.904Z,7
2019-02-15T00:16:19.312Z,14.8
2019-02-15T00:18:19.052Z,10.8
2019-02-15T00:20:18.728Z,7.2
2019-02-15T00:22:19.379Z,12.4
2019-02-15T00:24:19.062Z,8.6
2019-02-15T00:26:19.407Z,12.6
2019-02-15T00:28:19.048Z,10
2019-02-15T00:30:18.706Z,8.9
2019-02-15T00:32:19.339Z,7.7
2019-02-15T00:34:18.999Z,15.6
2019-02-15T00:36:19.253Z,8.7
2019-02-15T00:38:18.900Z,6.1
2019-02-15T00:40:19.012Z,16.3
2019-02-15T00:42:18.665Z,8.4
2019-02-15T00:44:19.297Z,4.4
2019-02-15T00:46:19.070Z,9.2
2019-02-15T00:48:18.694Z,10.4
2019-02-15T00:50:19.338Z,8.3
2019-02-15T00:52:18.990Z,8.6
2019-02-15T00:54:18.647Z,13.6
2019-02-15T00:56:18.874Z,8.9
2019-02-15T00:58:19.489Z,11.2
2019-02-15T01:00:19.154Z,10.8
2019-02-15T01:02:18.801Z,5.9
2019-02-15T01:04:19.434Z,8.4
2019-02-15T01:06:19.272Z,7
2019-02-15T01:08:18.892Z,10.1
2019-02-15T01:10:19.041Z,7.3
2019-02-15T01:12:18.697Z,5.5
2019-02-15T01:14:19.324Z,6.9
2019-02-15T01:16:18.654Z,10.7
2019-02-15T01:18:19.373Z,6.5
2019-02-15T01:20:19.026Z,9.1
2019-02-15T01:22:18.654Z,6.5
2019-02-15T01:24:19.270Z,11
2019-02-15T01:26:19.536Z,7.7
2019-02-15T01:28:19.175Z,10.4
2019-02-15T01:30:18.845Z,6
2019-02-15T01:32:19.487Z,5.3
2019-02-15T01:34:19.089Z,6.4
2019-02-15T01:36:19.410Z,6.6
2019-02-15T01:38:19.013Z,4
2019-02-15T01:40:19.105Z,13.8
2019-02-15T01:42:18.721Z,11.6
2019-02-15T01:44:19.347Z,9.4
2019-02-15T01:46:18.626Z,9.8
2019-02-15T01:48:19.293Z,8.4
2019-02-15T01:50:18.943Z,5.9
2019-02-15T01:52:18.579Z,9.1
2019-02-15T01:54:19.203Z,4.7
2019-02-15T01:56:19.476Z,6
2019-02-15T01:58:19.112Z,10.2
2019-02-15T02:00:18.783Z,5.3
2019-02-15T02:02:18.656Z,7.9
2019-02-15T02:04:19.270Z,6.4
2019-02-15T02:06:19.507Z,7.1
2019-02-15T02:08:19.131Z,9.1
2019-02-15T02:10:19.215Z,7.6
2019-02-15T02:12:18.840Z,11.4
2019-02-15T02:14:19.491Z,6
2019-02-15T02:16:18.737Z,15.4
2019-02-15T02:18:19.459Z,7.3
2019-02-15T02:20:19.255Z,8.3
2019-02-15T02:22:18.889Z,15.9
2019-02-15T02:24:19.509Z,11.2
2019-02-15T02:26:19.291Z,13.4
2019-02-15T02:28:18.939Z,5.9
2019-02-15T02:30:18.605Z,6.5
2019-02-15T02:32:19.220Z,5.7
2019-02-15T02:34:18.882Z,9.4
2019-02-15T02:36:18.726Z,6.4
2019-02-15T02:38:19.368Z,7.8
2019-02-15T02:40:19.467Z,8.4
2019-02-15T02:42:19.100Z,7.5
2019-02-15T02:44:18.724Z,6.8
2019-02-15T02:46:19.511Z,6.8
2019-02-15T02:48:19.179Z,7.5
2019-02-15T02:50:18.830Z,7
2019-02-15T02:52:19.479Z,7.2
2019-02-15T02:54:19.101Z,10.7
2019-02-15T02:56:19.419Z,11.1
2019-02-15T02:58:19.060Z,7
2019-02-15T03:00:18.706Z,5.8
2019-02-15T03:02:19.336Z,3.7
2019-02-15T03:04:18.958Z,5.2
2019-02-15T03:06:18.833Z,7.3
2019-02-15T03:08:19.479Z,3.6
2019-02-15T03:10:19.550Z,7
2019-02-15T03:12:19.208Z,5.3
2019-02-15T03:14:18.839Z,5.3
2019-02-15T03:16:19.190Z,7.1
2019-02-15T03:18:18.949Z,6.8
2019-02-15T03:20:18.614Z,8.1
2019-02-15T03:22:19.242Z,13
2019-02-15T03:24:18.887Z,7.7
2019-02-15T03:26:18.695Z,3.9
2019-02-15T03:28:19.355Z,5.6
2019-02-15T03:30:19.057Z,6.6
2019-02-15T03:32:18.737Z,7.1
2019-02-15T03:34:19.360Z,6
2019-02-15T03:36:19.180Z,6.5
2019-02-15T03:38:18.809Z,4.7
2019-02-15T03:40:18.963Z,13
2019-02-15T03:42:18.606Z,5.8
2019-02-15T03:44:22.904Z,7
2019-02-15T03:46:19.393Z,7.2
2019-02-15T03:48:19.044Z,11.8
2019-02-15T03:50:18.739Z,5.5
2019-02-15T03:52:19.384Z,7.4
2019-02-15T03:54:19.028Z,4.5
2019-02-15T03:56:19.351Z,6.8
2019-02-15T03:58:18.972Z,4.7
2019-02-15T04:00:18.622Z,7.4
2019-02-15T04:02:19.264Z,9.5
2019-02-15T04:04:18.916Z,5.8
2019-02-15T04:06:19.194Z,5.8
2019-02-15T04:08:18.864Z,8.1
2019-02-15T04:10:18.948Z,5.2
2019-02-15T04:12:18.594Z,9.3
2019-02-15T04:14:19.205Z,7
2019-02-15T04:16:18.739Z,12.4
2019-02-15T04:18:19.440Z,6.7
2019-02-15T04:20:19.166Z,9.8
2019-02-15T04:22:19.038Z,10.6
2019-02-15T04:24:18.678Z,5.4
2019-02-15T04:26:19.165Z,12
2019-02-15T04:28:18.801Z,6
2019-02-15T04:30:19.466Z,7.5
2019-02-15T04:32:19.100Z,4
2019-02-15T04:34:18.734Z,9
2019-02-15T04:36:19.534Z,5.5
2019-02-15T04:38:19.211Z,8.2
2019-02-15T04:40:19.355Z,5.6
2019-02-15T04:42:19.026Z,6.6
2019-02-15T04:44:18.699Z,4.4
2019-02-15T04:46:19.017Z,4.8
2019-02-15T04:48:18.668Z,3.6
2019-02-15T04:50:19.310Z,4.9
2019-02-15T04:52:18.933Z,5.8
2019-02-15T04:54:19.582Z,4.3
2019-02-15T04:56:18.834Z,14.9
2019-02-15T04:58:19.452Z,4.2
2019-02-15T05:00:19.135Z,15.5
2019-02-15T05:02:18.776Z,8.9
2019-02-15T05:04:19.426Z,4.2
2019-02-15T05:06:19.445Z,7.4
2019-02-15T05:08:19.069Z,11.7
2019-02-15T05:10:19.195Z,6.3
2019-02-15T05:12:18.835Z,6.2
2019-02-15T05:14:19.470Z,5.5
2019-02-15T05:16:19.373Z,9
2019-02-15T05:18:19.088Z,7.8
2019-02-15T05:20:18.741Z,3.6
2019-02-15T05:22:19.384Z,5.5
2019-02-15T05:24:19.003Z,9.1
2019-02-15T05:26:19.231Z,6.7
2019-02-15T05:28:18.862Z,5.8
2019-02-15T05:30:19.485Z,5.7
2019-02-15T05:32:19.127Z,16.8
2019-02-15T05:34:18.734Z,6.4
2019-02-15T05:36:19.520Z,8.8
2019-02-15T05:38:19.193Z,8.4
2019-02-15T05:40:19.301Z,6.8
2019-02-15T05:42:18.956Z,4.5
2019-02-15T05:44:18.584Z,5
2019-02-15T05:46:19.450Z,9.9
2019-02-15T05:48:19.117Z,8.5
2019-02-15T05:50:18.850Z,5.1
2019-02-15T05:52:19.491Z,6.3
2019-02-15T05:54:19.156Z,4.6
2019-02-15T05:56:19.190Z,7.5
2019-02-15T05:58:18.816Z,4.4
2019-02-15T06:00:19.451Z,5.8
2019-02-15T06:02:19.113Z,7.1
2019-02-15T06:04:18.755Z,3.2
2019-02-15T06:06:19.042Z,7.4
2019-02-15T06:08:18.705Z,7.2
2019-02-15T06:10:18.943Z,6.9
2019-02-15T06:12:18.578Z,6.7
2019-02-15T06:14:19.226Z,8.4
2019-02-15T06:16:19.523Z,5.6
2019-02-15T06:18:19.207Z,8.1
2019-02-15T06:20:18.870Z,11.1
2019-02-15T06:22:19.516Z,8.1
2019-02-15T06:24:19.163Z,7.3
2019-02-15T06:26:19.537Z,7
2019-02-15T06:28:19.192Z,6
2019-02-15T06:30:18.878Z,5.3
2019-02-15T06:32:19.489Z,7.1
2019-02-15T06:34:19.109Z,8.7
2019-02-15T06:36:18.916Z,6.6
2019-02-15T06:38:19.566Z,8.3
2019-02-15T06:40:18.677Z,13.8
2019-02-15T06:42:19.289Z,8
2019-02-15T06:44:18.921Z,11.5
2019-02-15T06:46:19.179Z,10.1
2019-02-15T06:48:18.817Z,15.7
2019-02-15T06:50:19.479Z,11.1
2019-02-15T06:52:19.121Z,7.6
2019-02-15T06:54:18.773Z,12.1
2019-02-15T06:56:18.600Z,9.2
2019-02-15T06:58:19.222Z,9
2019-02-15T07:00:18.856Z,5.8
2019-02-15T07:02:19.470Z,10.2
2019-02-15T07:04:19.104Z,13.8
2019-02-15T07:06:18.900Z,12.6
2019-02-15T07:08:19.526Z,6
2019-02-15T07:10:18.856Z,8.3
2019-02-15T07:12:19.497Z,5
2019-02-15T07:14:21.159Z,10.7
2019-02-15T07:16:18.973Z,7.6
2019-02-15T07:18:18.648Z,7.2
2019-02-15T07:20:19.302Z,6.3
2019-02-15T07:22:18.973Z,14.1
2019-02-15T07:24:18.592Z,10.8
2019-02-15T07:26:18.925Z,5.7
2019-02-15T07:28:19.580Z,6.9
2019-02-15T07:30:19.232Z,4.1
2019-02-15T07:32:18.851Z,12.3
2019-02-15T07:34:19.474Z,8.8
2019-02-15T07:36:18.844Z,6.1
2019-02-15T07:38:19.499Z,15.5
2019-02-15T07:40:18.618Z,11.5
2019-02-15T07:42:21.400Z,6.9
2019-02-15T07:44:19.022Z,9.3
2019-02-15T07:46:18.938Z,9.1
2019-02-15T07:48:19.586Z,20.2
2019-02-15T07:50:19.344Z,17.8
2019-02-15T07:52:18.969Z,10
2019-02-15T07:54:18.596Z,33.9
2019-02-15T07:56:19.057Z,16.9
2019-02-15T07:58:18.683Z,10
2019-02-15T08:00:19.442Z,15.3
2019-02-15T08:02:19.081Z,13.8
2019-02-15T08:04:18.732Z,19.2
2019-02-15T08:06:18.987Z,16.9
2019-02-15T08:08:18.598Z,8.8
2019-02-15T08:10:18.710Z,30.5
2019-02-15T08:12:18.744Z,12.3
2019-02-15T08:14:19.395Z,14.9
2019-02-15T08:16:18.725Z,19.8
2019-02-15T08:18:19.432Z,12
2019-02-15T08:20:19.097Z,8.5
2019-02-15T08:22:18.714Z,16.8
2019-02-15T08:24:19.361Z,17.9
2019-02-15T08:26:19.214Z,10.7
2019-02-15T08:28:18.858Z,13.1
2019-02-15T08:30:19.517Z,21
2019-02-15T08:32:19.129Z,9.7
2019-02-15T08:34:18.765Z,20.3
2019-02-15T08:36:19.008Z,9.1
2019-02-15T08:38:18.656Z,12.8
2019-02-15T08:40:18.805Z,13.9
2019-02-15T08:42:19.451Z,12.2
2019-02-15T08:44:19.084Z,18.1
2019-02-15T08:46:18.947Z,13.1
2019-02-15T08:48:18.599Z,14.7
2019-02-15T08:50:19.218Z,14.9
2019-02-15T08:52:18.876Z,13.3
2019-02-15T08:54:19.541Z,16.6
2019-02-15T08:56:18.762Z,9.5
2019-02-15T08:58:19.406Z,9.5
2019-02-15T09:00:19.024Z,8.7
2019-02-15T09:02:18.699Z,13.3
2019-02-15T09:04:19.352Z,9.3
2019-02-15T09:06:18.632Z,5.7
2019-02-15T09:08:19.284Z,8.1
2019-02-15T09:10:19.384Z,9.5
2019-02-15T09:12:19.052Z,9.7
2019-02-15T09:14:18.725Z,5.6
2019-02-15T09:16:19.036Z,11.2
2019-02-15T09:18:18.772Z,3
2019-02-15T09:20:19.436Z,5.8
2019-02-15T09:22:19.071Z,9.5
2019-02-15T09:24:18.734Z,3.7
2019-02-15T09:26:19.520Z,11.8
2019-02-15T09:28:19.157Z,4.3
2019-02-15T09:30:18.817Z,7.2
2019-02-15T09:32:19.479Z,4.7
2019-02-15T09:34:19.131Z,10.4
2019-02-15T09:36:19.392Z,7.8
2019-02-15T09:38:19.062Z,7.1
2019-02-15T09:40:19.188Z,3.9
2019-02-15T09:42:18.867Z,7.2
2019-02-15T09:44:19.524Z,8
2019-02-15T09:46:20.505Z,6.9
2019-02-15T09:48:19.143Z,4.7
2019-02-15T09:50:18.805Z,16
2019-02-15T09:52:19.449Z,4
2019-02-15T09:54:19.109Z,27.6
2019-02-15T09:56:19.538Z,5
2019-02-15T09:58:19.212Z,7.4
2019-02-15T10:00:18.891Z,4.9
2019-02-15T10:02:19.542Z,6.6
2019-02-15T10:04:19.175Z,5.1
2019-02-15T10:06:18.620Z,4.4
2019-02-15T10:08:19.283Z,5.9
2019-02-15T10:10:19.458Z,7
2019-02-15T10:12:19.123Z,8.9
2019-02-15T10:14:18.784Z,7.5
2019-02-15T10:16:19.072Z,6.9
2019-02-15T10:18:18.790Z,7.3
2019-02-15T10:20:19.483Z,8.2
2019-02-15T10:22:19.127Z,7.9
2019-02-15T10:24:18.808Z,6.5
2019-02-15T10:26:18.661Z,4.3
2019-02-15T10:28:19.315Z,3.5
2019-02-15T10:30:18.996Z,4.1
2019-02-15T10:32:18.640Z,5.4
2019-02-15T10:34:19.285Z,7.3
2019-02-15T10:36:19.557Z,4.9
2019-02-15T10:38:19.223Z,5.6
2019-02-15T10:40:19.321Z,7
2019-02-15T10:42:18.975Z,6
2019-02-15T10:44:18.623Z,4.6
2019-02-15T10:46:19.408Z,5.7
2019-02-15T10:48:19.063Z,5.7
2019-02-15T10:50:18.731Z,3.1
2019-02-15T10:52:19.356Z,11.1
2019-02-15T10:54:19.019Z,3.4
2019-02-15T10:56:19.319Z,7.2
2019-02-15T10:58:18.992Z,5.1
2019-02-15T11:00:18.725Z,3.4
2019-02-15T11:02:19.379Z,4.7
2019-02-15T11:04:19.030Z,4.9
2019-02-15T11:06:18.839Z,6.8
2019-02-15T11:08:19.542Z,3.3
2019-02-15T11:10:18.724Z,3.1
2019-02-15T11:12:19.400Z,7.4
2019-02-15T11:14:19.074Z,5.7
2019-02-15T11:16:19.355Z,6.8
2019-02-15T11:18:19.091Z,4.7
2019-02-15T11:20:18.758Z,4.2
2019-02-15T11:22:19.444Z,3.2
2019-02-15T11:24:19.099Z,15.1
2019-02-15T11:26:25.154Z,4.6
2019-02-15T11:28:18.805Z,5.2
2019-02-15T11:30:19.458Z,4
2019-02-15T11:32:19.111Z,4.7
2019-02-15T11:34:18.749Z,7.1
2019-02-15T11:36:19.017Z,3.1
2019-02-15T11:38:18.675Z,5.2
2019-02-15T11:40:18.801Z,4.1
2019-02-15T11:42:19.473Z,12.5
2019-02-15T11:44:19.140Z,4.9
2019-02-15T11:46:18.962Z,4.4
2019-02-15T11:48:18.615Z,5.4
2019-02-15T11:50:19.296Z,3
2019-02-15T11:52:18.974Z,7.4
2019-02-15T11:54:23.978Z,4
2019-02-15T11:56:19.265Z,3.3
2019-02-15T11:58:18.924Z,4.1
2019-02-15T12:00:23.194Z,2.9
2019-02-15T12:02:18.950Z,2.6
2019-02-15T12:04:18.633Z,3.7
2019-02-15T12:06:18.905Z,3.1
2019-02-15T12:08:19.572Z,5
2019-02-15T12:10:18.773Z,3
2019-02-15T12:12:19.417Z,3.1
2019-02-15T12:14:19.065Z,3.3
2019-02-15T12:16:19.041Z,2.4
2019-02-15T12:18:18.781Z,2.6
2019-02-15T12:20:19.477Z,4.6
2019-02-15T12:22:19.161Z,3.6
2019-02-15T12:24:18.825Z,2.5
2019-02-15T12:26:19.137Z,6.4
2019-02-15T12:28:18.790Z,3
2019-02-15T12:30:19.473Z,2.1
2019-02-15T12:32:19.142Z,4
2019-02-15T12:34:18.833Z,3.1
2019-02-15T12:36:19.170Z,2
2019-02-15T12:38:18.850Z,1.9
2019-02-15T12:40:18.987Z,2.4
2019-02-15T12:42:18.672Z,3
2019-02-15T12:44:19.337Z,6
2019-02-15T12:46:18.637Z,4.5
2019-02-15T12:48:19.296Z,2.1
2019-02-15T12:50:19.008Z,2.4
2019-02-15T12:52:18.667Z,4.6
2019-02-15T12:54:19.324Z,2.5
2019-02-15T12:56:19.063Z,1.6
2019-02-15T12:58:18.745Z,4.1
2019-02-15T13:00:19.910Z,3.5
2019-02-15T13:02:18.606Z,3
2019-02-15T13:04:19.299Z,5.7
2019-02-15T13:06:28.982Z,1.9
2019-02-15T13:08:18.746Z,2.3
2019-02-15T13:10:18.896Z,4.1
2019-02-15T13:12:18.604Z,3.2
2019-02-15T13:14:19.262Z,6.6
2019-02-15T13:16:18.627Z,1.8
2019-02-15T13:18:19.392Z,8.1
2019-02-15T13:20:19.124Z,2.7
2019-02-15T13:22:20.452Z,4.8
2019-02-15T13:24:19.153Z,4.1
2019-02-15T13:26:19.812Z,2.4
2019-02-15T13:28:19.531Z,3.4
2019-02-15T13:30:19.258Z,2.4
2019-02-15T13:32:18.939Z,4.5
2019-02-15T13:34:19.608Z,3.1
2019-02-15T13:36:19.526Z,1.9
2019-02-15T13:38:19.211Z,5.7
2019-02-15T13:40:18.376Z,1.8
2019-02-15T13:42:18.072Z,1.3
2019-02-15T13:44:18.757Z,3.9
2019-02-15T13:46:19.125Z,1.5
2019-02-15T13:48:18.784Z,3.6
2019-02-15T13:50:19.625Z,2.3
2019-02-15T13:52:19.323Z,1.6
2019-02-15T13:54:18.988Z,3.9
2019-02-15T13:56:18.904Z,1.3
2019-02-15T13:58:18.596Z,1.6
2019-02-15T14:00:19.319Z,1.4
2019-02-15T14:02:18.998Z,1.6
2019-02-15T14:04:18.672Z,3.3
2019-02-15T14:06:18.711Z,1.4
2019-02-15T14:08:19.388Z,1.5
2019-02-15T14:10:19.507Z,2.3
2019-02-15T14:12:19.179Z,0.7
2019-02-15T14:14:17.910Z,5.5
2019-02-15T14:16:19.265Z,2.2
2019-02-15T14:18:19.025Z,2
2019-02-15T14:20:18.743Z,4.4
2019-02-15T14:22:19.505Z,2.8
2019-02-15T14:24:19.244Z,1
2019-02-15T14:26:18.717Z,1.5
2019-02-15T14:28:18.378Z,2.7
2019-02-15T14:30:19.089Z,0.9
2019-02-15T14:32:17.817Z,2.3
2019-02-15T14:34:19.480Z,3.8
2019-02-15T14:36:18.359Z,1
2019-02-15T14:38:18.017Z,4.9
2019-02-15T14:40:18.150Z,1.7
2019-02-15T14:42:18.907Z,4.4
2019-02-15T14:44:18.577Z,3.6
2019-02-15T14:46:18.454Z,3.5
2019-02-15T14:48:20.283Z,2.7
2019-02-15T14:50:19.020Z,3
2019-02-15T14:52:17.718Z,4.4
2019-02-15T14:54:18.397Z,2.2
2019-02-15T14:56:17.709Z,3.2
2019-02-15T14:58:18.375Z,1
2019-02-15T15:00:18.133Z,1.1
2019-02-15T15:02:17.827Z,1.4
2019-02-15T15:04:18.526Z,6.2
2019-02-15T15:06:18.503Z,1.3
2019-02-15T15:08:18.188Z,2
2019-02-15T15:10:19.386Z,1.7
2019-02-15T15:12:18.068Z,3.1
2019-02-15T15:14:17.745Z,12.9
2019-02-15T15:16:17.651Z,3.8
2019-02-15T15:18:18.382Z,1.3
2019-02-15T15:20:19.087Z,1.4
2019-02-15T15:22:18.047Z,2.2
2019-02-15T15:24:17.716Z,2
2019-02-15T15:26:18.106Z,2
2019-02-15T15:28:17.791Z,1.7
2019-02-15T15:30:18.495Z,2.3
2019-02-15T15:32:18.210Z,2.4
2019-02-15T15:34:17.928Z,5.6
2019-02-15T15:36:18.673Z,1.5
2019-02-15T15:38:18.341Z,1.3
2019-02-15T15:40:18.709Z,2
2019-02-15T15:42:18.381Z,1.7
2019-02-15T15:44:18.119Z,1.4
2019-02-15T15:46:17.751Z,3
2019-02-15T15:48:23.152Z,14.1
2019-02-15T15:50:18.860Z,7.3
2019-02-15T15:52:18.542Z,6.1
2019-02-15T15:54:18.207Z,2.2
2019-02-15T15:56:18.519Z,4.4
2019-02-15T15:58:18.189Z,1.6
2019-02-15T16:00:17.872Z,3.8
2019-02-15T16:02:19.536Z,2.3
2019-02-15T16:04:18.244Z,3.6
2019-02-15T16:06:24.888Z,2.6
2019-02-15T16:08:18.586Z,1.1
2019-02-15T16:10:17.715Z,6.2
2019-02-15T16:12:18.397Z,12
2019-02-15T16:14:18.062Z,2.3
2019-02-15T16:16:17.978Z,1
2019-02-15T16:18:18.767Z,4.5
2019-02-15T16:20:19.472Z,1.8
2019-02-15T16:22:18.145Z,4.5
2019-02-15T16:24:18.842Z,1.6
2019-02-15T16:26:19.195Z,3.2
2019-02-15T16:28:18.878Z,1.1
2019-02-15T16:30:19.568Z,1.9
2019-02-15T16:32:19.266Z,1.1
2019-02-15T16:34:18.953Z,3.6
2019-02-15T16:36:19.287Z,2.3
2019-02-15T16:38:18.943Z,6.4
2019-02-15T16:40:19.093Z,1.4
2019-02-15T16:42:18.754Z,2.4
2019-02-15T16:44:19.412Z,5.3
2019-02-15T16:46:19.299Z,10.2
2019-02-15T16:48:18.980Z,3.9
2019-02-15T16:50:18.662Z,2.2
2019-02-15T16:52:19.360Z,3.5
2019-02-15T16:54:19.056Z,4.4
2019-02-15T16:56:19.456Z,20.9
2019-02-15T16:58:19.108Z,5.7
2019-02-15T17:00:18.775Z,8.7
2019-02-15T17:02:19.444Z,3
2019-02-15T17:04:19.118Z,5.5
2019-02-15T17:06:19.431Z,2.7
2019-02-15T17:08:19.089Z,5.9
2019-02-15T17:10:19.222Z,4.2
2019-02-15T17:12:18.891Z,4.5
2019-02-15T17:14:19.577Z,3.8
2019-02-15T17:16:19.403Z,5.9
2019-02-15T17:18:19.132Z,11.9
2019-02-15T17:20:18.795Z,9.3
2019-02-15T17:22:19.470Z,10.8
2019-02-15T17:24:19.150Z,4.3
2019-02-15T17:26:19.504Z,3.8
2019-02-15T17:28:19.182Z,6.5
2019-02-15T17:30:18.886Z,14.2
2019-02-15T17:32:19.552Z,6.1
2019-02-15T17:34:19.232Z,4
2019-02-15T17:36:19.059Z,9.2
2019-02-15T17:38:18.703Z,5.4
2019-02-15T17:40:18.839Z,9.2
2019-02-15T17:42:19.495Z,4.2
2019-02-15T17:44:19.158Z,16.1
2019-02-15T17:46:19.462Z,11.2
2019-02-15T17:48:19.128Z,11.4
2019-02-15T17:50:18.794Z,8.8
2019-02-15T17:52:19.467Z,14.7
2019-02-15T17:54:19.134Z,17.1
2019-02-15T17:56:19.393Z,9.5
2019-02-15T17:58:19.116Z,5.3
2019-02-15T18:00:18.801Z,11.7
2019-02-15T18:02:19.489Z,5.7
2019-02-15T18:04:19.164Z,8.7
2019-02-15T18:06:19.191Z,11.5
2019-02-15T18:08:18.835Z,9.1
2019-02-15T18:10:19.010Z,11.9
2019-02-15T18:12:18.663Z,9.5
2019-02-15T18:14:19.337Z,14.2
2019-02-15T18:16:18.624Z,13.5
2019-02-15T18:18:19.372Z,15.3
2019-02-15T18:20:19.041Z,17.4
2019-02-15T18:22:18.682Z,16.2
2019-02-15T18:24:19.346Z,19.9
2019-02-15T18:26:18.695Z,27.9
2019-02-15T18:28:19.373Z,21.7
2019-02-15T18:30:19.046Z,18.4
2019-02-15T18:32:18.685Z,20.6
2019-02-15T18:34:19.339Z,19.5
2019-02-15T18:36:19.269Z,20.1
2019-02-15T18:38:18.917Z,24.8
2019-02-15T18:40:19.058Z,24
2019-02-15T18:42:18.699Z,20.4
2019-02-15T18:44:19.343Z,22
2019-02-15T18:46:19.299Z,29.8
2019-02-15T18:48:18.979Z,23.4
2019-02-15T18:50:18.665Z,16.3
2019-02-15T18:52:19.333Z,19.3
2019-02-15T18:54:18.994Z,19.7
2019-02-15T18:56:19.268Z,21.6
2019-02-15T18:58:18.905Z,14.8
2019-02-15T19:00:19.666Z,16.1
2019-02-15T19:02:19.345Z,18
2019-02-15T19:04:18.994Z,12.5
2019-02-15T19:06:19.442Z,20.2
2019-02-15T19:08:19.089Z,13.2
2019-02-15T19:10:19.219Z,17.5
2019-02-15T19:12:18.893Z,14.3
2019-02-15T19:14:19.556Z,10
2019-02-15T19:16:19.316Z,12.3
2019-02-15T19:18:19.064Z,16.3
2019-02-15T19:20:18.738Z,8
2019-02-15T19:22:19.395Z,10.9
2019-02-15T19:24:19.076Z,9.8
2019-02-15T19:26:19.328Z,6.3
2019-02-15T19:28:18.976Z,6.2
2019-02-15T19:30:18.690Z,14.3
2019-02-15T19:32:19.374Z,7.3
2019-02-15T19:34:19.041Z,10.7
2019-02-15T19:36:18.851Z,6.4
2019-02-15T19:38:19.503Z,12.2
2019-02-15T19:40:19.592Z,12.5
2019-02-15T19:42:19.240Z,8
2019-02-15T19:44:18.896Z,9.5
2019-02-15T19:46:18.706Z,12.9
2019-02-15T19:48:19.381Z,7.4
2019-02-15T19:50:19.089Z,7.6
2019-02-15T19:52:18.755Z,10.5
2019-02-15T19:54:19.439Z,15.4
2019-02-15T19:56:18.683Z,11.1
2019-02-15T19:58:19.337Z,9
2019-02-15T20:00:19.109Z,6.3
2019-02-15T20:02:18.759Z,9.8
2019-02-15T20:04:19.426Z,7.7
2019-02-15T20:06:18.709Z,11.9
2019-02-15T20:08:19.350Z,13.4
2019-02-15T20:10:19.451Z,8.1
2019-02-15T20:12:19.122Z,7.8
2019-02-15T20:14:18.794Z,13.5
2019-02-15T20:16:18.644Z,15.3
2019-02-15T20:18:19.409Z,16.6
2019-02-15T20:20:19.068Z,10
2019-02-15T20:22:18.715Z,13.3
2019-02-15T20:24:19.364Z,11.9
2019-02-15T20:26:18.688Z,12.4
2019-02-15T20:28:19.363Z,11.1
2019-02-15T20:30:19.078Z,18.4
2019-02-15T20:32:18.749Z,14.8
2019-02-15T20:34:19.422Z,12.6
2019-02-15T20:36:19.198Z,21.5
2019-02-15T20:38:18.828Z,10.3
2019-02-15T20:40:18.983Z,10.2
2019-02-15T20:42:18.620Z,10.4
2019-02-15T20:44:19.283Z,15.7
2019-02-15T20:46:18.676Z,16.1
2019-02-15T20:48:19.302Z,15.8
2019-02-15T20:50:18.957Z,15.9
2019-02-15T20:52:18.599Z,15.6
2019-02-15T20:54:19.264Z,20.2
2019-02-15T20:56:18.628Z,14.8
2019-02-15T20:58:19.324Z,16.9
2019-02-15T21:00:18.992Z,14.4
2019-02-15T21:02:18.669Z,15.3
2019-02-15T21:04:19.323Z,13.8
2019-02-15T21:06:19.153Z,14
2019-02-15T21:08:18.826Z,15
2019-02-15T21:10:18.964Z,8.1
2019-02-15T21:12:18.677Z,13.4
2019-02-15T21:14:19.347Z,11.5
2019-02-15T21:16:19.220Z,12.3
2019-02-15T21:18:18.969Z,8
2019-02-15T21:20:18.643Z,14.8
2019-02-15T21:22:19.312Z,16.8
2019-02-15T21:24:18.959Z,9.4
2019-02-15T21:26:19.253Z,12.6
2019-02-15T21:28:18.898Z,12.8
2019-02-15T21:30:19.563Z,10.4
2019-02-15T21:32:19.194Z,11
2019-02-15T21:34:18.828Z,9
2019-02-15T21:36:19.066Z,8.5
2019-02-15T21:38:18.705Z,14.3
2019-02-15T21:40:18.825Z,11.5
2019-02-15T21:42:19.461Z,9
2019-02-15T21:44:19.086Z,11.6
2019-02-15T21:46:19.346Z,9.3
2019-02-15T21:48:18.991Z,15.5
2019-02-15T21:50:18.631Z,8.6
2019-02-15T21:52:19.254Z,12.8
2019-02-15T21:54:18.883Z,9.4
2019-02-15T21:56:19.244Z,13.1
2019-02-15T21:58:18.883Z,12.3
2019-02-15T22:00:19.508Z,8.1
2019-02-15T22:02:19.115Z,9.6
2019-02-15T22:04:18.735Z,9.8
2019-02-15T22:06:18.942Z,11.7
2019-02-15T22:08:18.564Z,11.3
2019-02-15T22:10:18.626Z,14.3
2019-02-15T22:12:18.980Z,14
2019-02-15T22:14:18.623Z,10
2019-02-15T22:16:19.482Z,11.3
2019-02-15T22:18:19.168Z,9.5
2019-02-15T22:20:27.177Z,8.8
2019-02-15T22:22:18.816Z,10.5
2019-02-15T22:24:19.430Z,13.8
2019-02-15T22:26:19.299Z,8.6
2019-02-15T22:28:18.928Z,12
2019-02-15T22:30:19.587Z,13.3
2019-02-15T22:32:19.197Z,22
2019-02-15T22:34:18.810Z,20.4
2019-02-15T22:36:18.851Z,13
2019-02-15T22:38:19.471Z,13.9
2019-02-15T22:40:19.546Z,16.4
2019-02-15T22:42:19.162Z,12.5
2019-02-15T22:44:18.776Z,27.3
2019-02-15T22:46:19.516Z,15.1
2019-02-15T22:48:19.124Z,10.7
2019-02-15T22:50:18.758Z,12.6
2019-02-15T22:52:19.364Z,14.8
2019-02-15T22:54:18.974Z,11.8
2019-02-15T22:56:19.288Z,11.1
2019-02-15T22:58:18.905Z,16.8
2019-02-15T23:00:19.542Z,9.2
2019-02-15T23:02:19.186Z,17.3
2019-02-15T23:04:18.801Z,12.1
2019-02-15T23:06:19.568Z,11.3
2019-02-15T23:08:19.219Z,15.4
2019-02-15T23:10:19.296Z,10.6
2019-02-15T23:12:18.915Z,13.8
2019-02-15T23:14:19.523Z,12.4
2019-02-15T23:16:18.814Z,13
2019-02-15T23:18:19.534Z,10.4
2019-02-15T23:20:19.175Z,13.7
2019-02-15T23:22:18.787Z,10.4
2019-02-15T23:24:19.469Z,9.6
2019-02-15T23:26:18.749Z,7.9
2019-02-15T23:28:19.373Z,8.3
2019-02-15T23:30:19.013Z,8.5
2019-02-15T23:32:18.626Z,11.6
2019-02-15T23:34:19.242Z,9.3
2019-02-15T23:36:19.450Z,6
2019-02-15T23:38:19.063Z,7.8
2019-02-15T23:40:19.142Z,9
2019-02-15T23:42:18.753Z,8.8
2019-02-15T23:44:19.373Z,8.4
2019-02-15T23:46:18.756Z,6.7
2019-02-15T23:48:19.385Z,8.3
2019-02-15T23:50:19.039Z,11.9
2019-02-15T23:52:18.655Z,7.4
2019-02-15T23:54:19.261Z,7.6
2019-02-15T23:56:19.551Z,6.8
2019-02-15T23:58:19.159Z,6.8
